createdAt,value
2023-08-07T00:02:16.742Z,13.10
2023-08-07T00:05:04.629Z,13.10
2023-08-07T00:07:52.283Z,13.20
2023-08-07T00:10:39.991Z,13.20
2023-08-07T00:13:27.450Z,13.00
2023-08-07T00:16:15.102Z,13.00
2023-08-07T00:19:03.856Z,13.10
2023-08-07T00:21:51.453Z,13.00
2023-08-07T00:24:38.794Z,12.90
2023-08-07T00:27:26.251Z,12.80
2023-08-07T00:30:14.055Z,12.70
2023-08-07T00:33:01.990Z,12.70
2023-08-07T00:35:49.426Z,12.80
2023-08-07T00:38:37.015Z,12.80
2023-08-07T00:41:24.531Z,12.90
2023-08-07T00:44:11.990Z,13.00
2023-08-07T00:46:59.666Z,13.00
2023-08-07T00:49:48.098Z,13.00
2023-08-07T00:52:35.992Z,13.00
2023-08-07T00:55:23.652Z,12.90
2023-08-07T00:58:11.552Z,12.90
2023-08-07T01:00:59.402Z,12.90
2023-08-07T01:03:46.929Z,12.90
2023-08-07T01:06:34.349Z,12.80
2023-08-07T01:09:21.757Z,12.80
2023-08-07T01:12:16.095Z,12.70
2023-08-07T01:15:08.294Z,12.70
2023-08-07T01:17:56.534Z,12.60
2023-08-07T01:20:44.013Z,12.70
2023-08-07T01:23:31.492Z,12.70
2023-08-07T01:26:20.353Z,12.70
2023-08-07T01:29:23.816Z,12.80
2023-08-07T01:32:12.449Z,12.80
2023-08-07T01:35:02.582Z,12.80
2023-08-07T01:37:51.585Z,12.70
2023-08-07T01:40:40.035Z,12.80
2023-08-07T01:43:28.229Z,12.80
2023-08-07T01:46:15.702Z,12.80
2023-08-07T01:49:03.133Z,12.80
2023-08-07T01:51:50.717Z,12.80
2023-08-07T01:54:38.147Z,12.90
2023-08-07T01:57:26.565Z,12.90
2023-08-07T02:00:14.114Z,12.90
2023-08-07T02:03:01.660Z,12.90
2023-08-07T02:05:49.255Z,12.90
2023-08-07T02:08:36.792Z,12.80
2023-08-07T02:11:24.220Z,12.70
2023-08-07T02:14:11.591Z,12.70
2023-08-07T02:16:58.954Z,12.80
2023-08-07T02:19:46.387Z,12.70
2023-08-07T02:22:33.817Z,12.70
2023-08-07T02:25:21.223Z,12.60
2023-08-07T02:28:08.768Z,12.50
2023-08-07T02:30:56.506Z,12.50
2023-08-07T02:33:44.031Z,12.60
2023-08-07T02:36:31.487Z,12.60
2023-08-07T02:39:18.955Z,12.60
2023-08-07T02:42:06.598Z,12.60
2023-08-07T02:44:54.125Z,12.60
2023-08-07T02:47:41.695Z,12.60
2023-08-07T02:50:33.495Z,12.60
2023-08-07T02:53:21.033Z,12.60
2023-08-07T02:56:08.563Z,12.60
2023-08-07T02:58:56.162Z,12.60
2023-08-07T03:01:44.645Z,12.50
2023-08-07T03:04:32.372Z,12.60
2023-08-07T03:07:19.801Z,12.50
2023-08-07T03:10:08.566Z,12.60
2023-08-07T03:12:56.070Z,12.60
2023-08-07T03:15:43.520Z,12.60
2023-08-07T03:18:31.125Z,12.60
2023-08-07T03:21:18.541Z,12.60
2023-08-07T03:24:06.036Z,12.60
2023-08-07T03:26:59.303Z,12.60
2023-08-07T03:29:46.891Z,12.50
2023-08-07T03:32:34.607Z,12.50
2023-08-07T03:35:22.575Z,12.40
2023-08-07T03:38:10.176Z,12.30
2023-08-07T03:40:57.628Z,12.30
2023-08-07T03:43:45.201Z,12.40
2023-08-07T03:46:32.613Z,12.40
2023-08-07T03:49:20.052Z,12.30
2023-08-07T03:52:07.792Z,12.20
2023-08-07T03:54:55.399Z,12.40
2023-08-07T03:57:43.068Z,12.30
2023-08-07T04:00:30.399Z,12.30
2023-08-07T04:03:17.849Z,12.30
2023-08-07T04:06:06.810Z,12.40
2023-08-07T04:08:54.533Z,12.40
2023-08-07T04:11:42.015Z,12.50
2023-08-07T04:14:29.408Z,12.60
2023-08-07T04:17:17.537Z,12.60
2023-08-07T04:20:05.286Z,12.60
2023-08-07T04:22:52.756Z,12.50
2023-08-07T04:25:40.169Z,12.50
2023-08-07T04:28:29.354Z,12.60
2023-08-07T04:31:16.804Z,12.60
2023-08-07T04:34:04.368Z,12.60
2023-08-07T04:36:55.115Z,12.60
2023-08-07T04:39:42.874Z,12.60
2023-08-07T04:42:30.376Z,12.70
2023-08-07T04:45:17.912Z,12.80
2023-08-07T04:48:05.782Z,12.90
2023-08-07T04:50:53.353Z,13.00
2023-08-07T04:53:40.774Z,13.00
2023-08-07T04:56:28.196Z,13.00
2023-08-07T04:59:15.634Z,13.00
2023-08-07T05:02:03.063Z,13.10
2023-08-07T05:04:50.465Z,13.10
2023-08-07T05:07:38.000Z,13.00
2023-08-07T05:10:25.413Z,13.10
2023-08-07T05:13:12.801Z,13.10
2023-08-07T05:16:00.192Z,13.10
2023-08-07T05:18:50.661Z,13.10
2023-08-07T05:21:38.771Z,13.20
2023-08-07T05:24:26.994Z,13.10
2023-08-07T05:27:17.538Z,13.20
2023-08-07T05:30:05.820Z,13.20
2023-08-07T05:32:53.464Z,13.20
2023-08-07T05:35:41.071Z,13.20
2023-08-07T05:38:28.621Z,13.20
2023-08-07T05:41:16.134Z,13.20
2023-08-07T05:44:03.556Z,13.20
2023-08-07T05:46:51.093Z,13.20
2023-08-07T05:49:38.559Z,13.30
2023-08-07T05:52:26.148Z,13.20
2023-08-07T05:55:13.643Z,13.20
2023-08-07T05:58:01.026Z,13.20
2023-08-07T06:00:48.696Z,13.10
2023-08-07T06:03:36.136Z,13.00
2023-08-07T06:06:24.294Z,12.90
2023-08-07T06:09:11.693Z,12.80
2023-08-07T06:11:59.559Z,12.70
2023-08-07T06:14:47.291Z,12.60
2023-08-07T06:17:35.221Z,12.60
2023-08-07T06:20:22.792Z,12.60
2023-08-07T06:23:10.187Z,12.60
2023-08-07T06:25:59.752Z,12.40
2023-08-07T06:28:48.343Z,12.50
2023-08-07T06:31:35.967Z,12.50
2023-08-07T06:34:23.475Z,12.70
2023-08-07T06:37:10.984Z,12.80
2023-08-07T06:39:58.538Z,12.80
2023-08-07T06:42:45.936Z,12.90
2023-08-07T06:45:33.371Z,12.90
2023-08-07T06:48:20.777Z,13.00
2023-08-07T06:51:08.239Z,13.00
2023-08-07T06:53:55.595Z,12.90
2023-08-07T06:56:44.351Z,12.90
2023-08-07T06:59:31.772Z,12.80
2023-08-07T07:02:19.194Z,12.80
2023-08-07T07:05:06.633Z,12.80
2023-08-07T07:07:55.475Z,13.00
2023-08-07T07:10:42.947Z,13.20
2023-08-07T07:13:30.635Z,13.10
2023-08-07T07:16:23.073Z,13.20
2023-08-07T07:19:11.305Z,13.20
2023-08-07T07:21:58.860Z,13.40
2023-08-07T07:24:46.415Z,13.30
2023-08-07T07:27:33.825Z,13.30
2023-08-07T07:30:23.424Z,13.40
2023-08-07T07:33:11.021Z,13.60
2023-08-07T07:35:58.752Z,13.30
2023-08-07T07:38:49.135Z,13.10
2023-08-07T07:41:36.773Z,13.10
2023-08-07T07:44:24.188Z,13.20
2023-08-07T07:47:13.476Z,13.20
2023-08-07T07:50:09.223Z,13.20
2023-08-07T07:52:56.604Z,13.30
2023-08-07T07:55:47.721Z,13.40
2023-08-07T07:58:35.179Z,13.50
2023-08-07T08:01:23.166Z,13.50
2023-08-07T08:04:11.507Z,13.50
2023-08-07T08:06:58.956Z,13.50
2023-08-07T08:09:46.338Z,13.20
2023-08-07T08:12:33.811Z,13.10
2023-08-07T08:15:22.259Z,13.10
2023-08-07T08:18:09.914Z,13.10
2023-08-07T08:20:57.669Z,13.30
2023-08-07T08:23:45.428Z,13.50
2023-08-07T08:26:33.069Z,13.70
2023-08-07T08:29:20.663Z,13.80
2023-08-07T08:32:08.035Z,13.80
2023-08-07T08:34:55.526Z,13.80
2023-08-07T08:37:42.953Z,13.50
2023-08-07T08:40:30.775Z,13.50
2023-08-07T08:43:18.394Z,13.50
2023-08-07T08:46:06.426Z,13.50
2023-08-07T08:48:57.583Z,13.50
2023-08-07T08:51:45.803Z,13.50
2023-08-07T08:54:33.535Z,13.30
2023-08-07T08:57:20.916Z,13.20
2023-08-07T09:00:16.925Z,13.30
2023-08-07T09:03:04.659Z,13.40
2023-08-07T09:05:54.214Z,13.60
2023-08-07T09:08:45.174Z,13.60
2023-08-07T09:11:34.446Z,13.60
2023-08-07T09:14:23.558Z,13.70
2023-08-07T09:17:12.249Z,13.60
2023-08-07T09:20:03.891Z,13.50
2023-08-07T09:22:57.571Z,13.60
2023-08-07T09:25:45.430Z,13.60
2023-08-07T09:28:39.945Z,13.60
2023-08-07T09:32:12.435Z,13.60
2023-08-07T09:37:50.992Z,13.50
2023-08-07T09:40:53.021Z,13.50
2023-08-07T09:43:47.144Z,13.60
2023-08-07T09:46:37.849Z,13.60
2023-08-07T09:49:45.301Z,13.50
2023-08-07T09:52:38.195Z,13.50
2023-08-07T09:55:28.236Z,13.50
2023-08-07T09:58:18.197Z,13.60
2023-08-07T10:01:14.592Z,13.70
2023-08-07T10:04:09.293Z,13.50
2023-08-07T10:07:01.430Z,13.50
2023-08-07T10:09:58.799Z,13.70
2023-08-07T10:16:21.466Z,13.60
2023-08-07T10:19:23.705Z,13.70
2023-08-07T10:22:44.830Z,13.70
2023-08-07T10:33:36.085Z,13.50
2023-08-07T10:56:10.656Z,13.70
2023-08-07T10:59:09.369Z,13.90
2023-08-07T11:02:00.617Z,13.80
2023-08-07T11:04:52.845Z,13.90
2023-08-07T11:07:45.993Z,14.00
2023-08-07T11:10:37.458Z,14.10
2023-08-07T11:17:00.874Z,14.00
2023-08-07T11:19:52.862Z,14.00
2023-08-07T11:22:42.578Z,14.10
2023-08-07T11:25:37.564Z,14.30
2023-08-07T11:28:33.432Z,14.30
2023-08-07T11:31:21.129Z,14.30
2023-08-07T11:34:08.514Z,14.40
2023-08-07T11:36:56.917Z,14.40
2023-08-07T11:40:06.630Z,14.60
2023-08-07T11:43:02.825Z,14.60
2023-08-07T11:49:11.249Z,14.50
2023-08-07T11:52:02.974Z,14.60
2023-08-07T11:54:50.456Z,14.80
2023-08-07T11:57:39.547Z,14.90
2023-08-07T12:00:29.423Z,15.10
2023-08-07T12:03:27.929Z,15.20
2023-08-07T12:06:15.431Z,15.30
2023-08-07T12:09:07.012Z,15.40
2023-08-07T12:12:03.291Z,15.70
2023-08-07T12:15:02.446Z,15.80
2023-08-07T12:18:05.185Z,15.70
2023-08-07T12:21:03.069Z,15.90
2023-08-07T12:23:59.016Z,15.80
2023-08-07T12:26:55.652Z,16.00
2023-08-07T12:29:45.161Z,16.00
2023-08-07T12:33:00.351Z,16.90
2023-08-07T12:35:51.612Z,17.00
2023-08-07T12:38:43.332Z,18.10
2023-08-07T12:44:26.501Z,19.90
2023-08-07T12:50:36.124Z,22.10
2023-08-07T12:53:28.877Z,19.80
2023-08-07T12:59:27.133Z,20.00
2023-08-07T13:02:23.003Z,20.50
2023-08-07T13:05:11.557Z,20.90
2023-08-07T13:07:59.743Z,20.10
2023-08-07T13:10:56.110Z,19.70
2023-08-07T13:13:46.464Z,19.20
2023-08-07T13:16:38.196Z,18.70
2023-08-07T13:19:25.899Z,19.30
2023-08-07T13:22:16.009Z,19.90
2023-08-07T13:25:34.721Z,20.70
2023-08-07T13:28:28.935Z,21.30
2023-08-07T13:31:21.450Z,21.10
2023-08-07T13:34:19.516Z,22.40
2023-08-07T13:37:09.126Z,19.70
2023-08-07T13:39:56.932Z,20.10
2023-08-07T13:42:44.876Z,20.00
2023-08-07T13:49:05.185Z,20.70
2023-08-07T13:52:14.984Z,21.60
2023-08-07T14:05:12.966Z,20.60
2023-08-07T14:08:32.343Z,21.20
2023-08-07T14:30:48.594Z,20.30
2023-08-07T14:47:35.839Z,20.70
2023-08-07T14:50:23.488Z,21.30
2023-08-07T14:53:10.897Z,22.30
2023-08-07T14:55:58.867Z,23.00
2023-08-07T14:58:46.384Z,23.70
2023-08-07T15:01:36.643Z,24.00
2023-08-07T15:04:29.204Z,23.90
2023-08-07T15:07:29.409Z,23.80
2023-08-07T15:10:31.875Z,23.50
2023-08-07T15:13:24.611Z,22.40
2023-08-07T15:16:13.649Z,23.00
2023-08-07T15:19:03.517Z,21.80
2023-08-07T15:21:54.024Z,21.60
2023-08-07T15:24:41.416Z,21.30
2023-08-07T15:27:28.918Z,21.20
2023-08-07T15:30:16.295Z,21.30
2023-08-07T15:33:06.682Z,21.30
2023-08-07T15:35:54.882Z,20.70
2023-08-07T15:38:42.440Z,19.80
2023-08-07T15:41:32.233Z,19.60
2023-08-07T15:44:19.718Z,19.40
2023-08-07T15:47:07.325Z,19.50
2023-08-07T15:49:54.738Z,19.50
2023-08-07T15:52:42.349Z,20.40
2023-08-07T15:55:32.782Z,21.50
2023-08-07T15:58:22.981Z,21.90
2023-08-07T16:01:12.071Z,23.10
2023-08-07T16:03:59.722Z,22.30
2023-08-07T16:06:47.441Z,22.40
2023-08-07T16:09:34.845Z,22.10
2023-08-07T16:12:22.250Z,22.50
2023-08-07T16:15:09.869Z,21.90
2023-08-07T16:17:58.873Z,22.40
2023-08-07T16:20:46.411Z,22.20
2023-08-07T16:23:33.866Z,23.30
2023-08-07T16:26:21.285Z,22.40
2023-08-07T16:29:08.618Z,21.90
2023-08-07T16:31:57.335Z,22.20
2023-08-07T16:34:45.070Z,21.90
2023-08-07T16:37:33.080Z,22.00
2023-08-07T16:40:20.626Z,21.40
2023-08-07T16:43:08.372Z,20.40
2023-08-07T16:45:55.778Z,20.60
2023-08-07T16:48:43.496Z,20.60
2023-08-07T16:51:33.706Z,20.30
2023-08-07T16:54:21.262Z,20.40
2023-08-07T16:57:09.440Z,20.50
2023-08-07T16:59:56.910Z,20.80
2023-08-07T17:02:48.831Z,21.20
2023-08-07T17:05:36.376Z,22.90
2023-08-07T17:08:24.530Z,23.20
2023-08-07T17:11:13.845Z,22.70
2023-08-07T17:14:01.589Z,21.50
2023-08-07T17:16:49.426Z,22.10
2023-08-07T17:19:37.654Z,22.40
2023-08-07T17:22:25.118Z,22.90
2023-08-07T17:25:13.016Z,23.10
2023-08-07T17:28:00.610Z,22.10
2023-08-07T17:30:47.982Z,21.60
2023-08-07T17:33:35.650Z,21.40
2023-08-07T17:36:23.169Z,21.90
2023-08-07T17:39:14.498Z,22.30
2023-08-07T17:42:02.116Z,22.30
2023-08-07T17:44:51.141Z,21.90
2023-08-07T17:47:38.608Z,21.50
2023-08-07T17:50:26.152Z,21.10
2023-08-07T17:53:13.724Z,21.50
2023-08-07T17:56:01.426Z,21.70
2023-08-07T17:58:48.862Z,21.30
2023-08-07T18:01:36.320Z,20.40
2023-08-07T18:04:23.999Z,19.50
2023-08-07T18:07:11.515Z,18.80
2023-08-07T18:09:59.164Z,18.70
2023-08-07T18:12:46.755Z,19.00
2023-08-07T18:15:34.571Z,18.90
2023-08-07T18:18:21.965Z,18.60
2023-08-07T18:21:09.348Z,18.40
2023-08-07T18:23:56.721Z,18.20
2023-08-07T18:26:44.523Z,17.90
2023-08-07T18:29:31.874Z,17.80
2023-08-07T18:32:19.214Z,17.70
2023-08-07T18:35:07.624Z,17.60
2023-08-07T18:37:55.155Z,17.60
2023-08-07T18:40:43.194Z,17.40
2023-08-07T18:43:31.015Z,17.40
2023-08-07T18:46:18.430Z,17.10
2023-08-07T18:49:05.794Z,17.00
2023-08-07T18:51:53.219Z,17.10
2023-08-07T18:54:41.074Z,17.00
2023-08-07T18:57:28.465Z,16.80
2023-08-07T19:00:16.021Z,16.70
2023-08-07T19:03:03.533Z,16.70
2023-08-07T19:05:51.238Z,16.70
2023-08-07T19:08:39.308Z,16.60
2023-08-07T19:11:28.744Z,16.50
2023-08-07T19:14:17.614Z,16.40
2023-08-07T19:17:08.663Z,16.40
2023-08-07T19:19:57.183Z,16.30
2023-08-07T19:22:44.561Z,16.30
2023-08-07T19:25:31.983Z,16.20
2023-08-07T19:28:19.354Z,16.20
2023-08-07T19:31:07.069Z,16.00
2023-08-07T19:33:54.640Z,15.80
2023-08-07T19:36:42.066Z,15.70
2023-08-07T19:39:29.386Z,15.70
2023-08-07T19:42:16.824Z,15.70
2023-08-07T19:45:04.943Z,15.60
2023-08-07T19:47:52.384Z,15.40
2023-08-07T19:50:39.966Z,15.30
2023-08-07T19:53:27.530Z,15.20
2023-08-07T19:56:14.981Z,15.20
2023-08-07T19:59:06.258Z,15.10
2023-08-07T20:01:53.961Z,15.20
2023-08-07T20:04:41.407Z,15.10
2023-08-07T20:07:31.581Z,15.10
2023-08-07T20:10:24.208Z,15.10
2023-08-07T20:13:11.733Z,15.10
2023-08-07T20:16:00.729Z,15.00
2023-08-07T20:18:48.167Z,15.00
2023-08-07T20:21:35.836Z,15.00
2023-08-07T20:24:23.398Z,14.90
2023-08-07T20:27:10.804Z,15.00
2023-08-07T20:29:58.174Z,14.90
2023-08-07T20:32:45.599Z,14.80
2023-08-07T20:35:33.024Z,14.80
2023-08-07T20:38:20.377Z,14.80
2023-08-07T20:41:07.803Z,14.70
2023-08-07T20:43:55.290Z,14.70
2023-08-07T20:46:42.774Z,14.70
2023-08-07T20:49:30.256Z,14.70
2023-08-07T20:52:17.821Z,14.70
2023-08-07T20:55:07.147Z,14.80
2023-08-07T20:57:54.855Z,14.80
2023-08-07T21:00:42.310Z,14.80
2023-08-07T21:03:29.800Z,14.90
2023-08-07T21:06:17.772Z,14.80
2023-08-07T21:09:05.385Z,14.70
2023-08-07T21:11:53.920Z,14.60
2023-08-07T21:14:41.596Z,14.60
2023-08-07T21:17:29.739Z,14.50
2023-08-07T21:20:18.192Z,14.40
2023-08-07T21:23:06.119Z,14.40
2023-08-07T21:25:53.589Z,14.40
2023-08-07T21:28:41.026Z,14.30
2023-08-07T21:31:29.472Z,14.30
2023-08-07T21:34:20.356Z,14.30
2023-08-07T21:37:08.839Z,14.30
2023-08-07T21:39:56.359Z,14.20
2023-08-07T21:42:43.733Z,14.20
2023-08-07T21:45:31.255Z,14.10
2023-08-07T21:48:18.802Z,14.20
2023-08-07T21:51:06.216Z,14.30
2023-08-07T21:53:53.613Z,14.40
2023-08-07T21:56:43.484Z,14.40
2023-08-07T21:59:31.013Z,14.40
2023-08-07T22:02:18.363Z,14.20
2023-08-07T22:05:07.721Z,14.10
2023-08-07T22:07:55.296Z,13.90
2023-08-07T22:10:42.732Z,13.90
2023-08-07T22:13:30.169Z,13.80
2023-08-07T22:16:17.617Z,13.70
2023-08-07T22:19:05.119Z,13.70
2023-08-07T22:21:52.681Z,13.70
2023-08-07T22:24:40.754Z,13.80
2023-08-07T22:27:28.087Z,13.90
2023-08-07T22:30:16.010Z,14.00
2023-08-07T22:33:03.736Z,14.00
2023-08-07T22:35:51.185Z,14.00
2023-08-07T22:38:39.883Z,14.00
2023-08-07T22:41:27.272Z,14.10
2023-08-07T22:44:14.752Z,14.30
2023-08-07T22:47:02.120Z,14.30
2023-08-07T22:49:49.499Z,14.50
2023-08-07T22:52:36.892Z,14.50
2023-08-07T22:55:24.226Z,14.60
2023-08-07T22:58:11.658Z,14.70
2023-08-07T23:00:59.069Z,14.70
2023-08-07T23:03:46.462Z,14.70
2023-08-07T23:06:33.933Z,14.70
2023-08-07T23:09:21.354Z,14.70
2023-08-07T23:12:08.813Z,14.70
2023-08-07T23:14:56.202Z,14.90
2023-08-07T23:17:43.569Z,15.00
2023-08-07T23:20:31.243Z,15.10
2023-08-07T23:23:18.791Z,15.10
2023-08-07T23:26:06.155Z,15.00
2023-08-07T23:28:56.710Z,15.00
2023-08-07T23:31:44.444Z,15.00
2023-08-07T23:34:31.852Z,14.90
2023-08-07T23:37:19.330Z,14.80
2023-08-07T23:40:07.796Z,14.80
2023-08-07T23:42:55.222Z,14.70
2023-08-07T23:45:42.642Z,14.70
2023-08-07T23:48:30.214Z,14.70
2023-08-07T23:51:17.634Z,14.70
2023-08-07T23:54:05.030Z,14.60
2023-08-07T23:56:52.443Z,14.60
2023-08-07T23:59:39.894Z,14.60
